Terminal Aerodrome Forecast
Issued by NWS Shreveport, LA

Home | Current Version | Previous Version | Text Only | Print | Product List | Glossary On
Versions: 1 2 3 4 5 6 7 8 9 10 11 12 13 14
991
FTUS44 KSHV 211145
TAFSHV
TAF
KSHV 211145Z 2112/2212 15010KT P6SM OVC008
     FM211600 15011KT P6SM SCT008 BKN011
     FM211800 16011KT P6SM BKN017
     FM212100 16010KT P6SM BKN035
     FM220000 14010KT P6SM SCT040 SCT150 BKN250
     FM220500 16011KT P6SM BKN015
     FM221000 19011KT P6SM VCTS BKN015CB=

USA.gov is the U.S. government's official web portal to all federal, state and local government web resources and services.